createdAt,value
2018-02-25T00:00:36.794Z,70.90
2018-02-25T00:01:39.261Z,71.00
2018-02-25T00:02:41.746Z,71.10
2018-02-25T00:03:44.325Z,71.20
2018-02-25T00:04:46.820Z,71.20
2018-02-25T00:05:49.323Z,71.30
2018-02-25T00:06:51.883Z,71.30
2018-02-25T00:07:55.276Z,71.40
2018-02-25T00:08:57.781Z,71.40
2018-02-25T00:10:00.286Z,71.30
2018-02-25T00:11:02.836Z,71.20
2018-02-25T00:12:05.344Z,71.10
2018-02-25T00:13:07.833Z,71.90
2018-02-25T00:14:10.378Z,71.30
2018-02-25T00:15:14.678Z,71.50
2018-02-25T00:16:17.160Z,71.50
2018-02-25T00:17:19.673Z,71.60
2018-02-25T00:18:22.985Z,71.80
2018-02-25T00:19:25.483Z,71.70
2018-02-25T00:20:27.973Z,71.70
2018-02-25T00:21:30.470Z,71.60
2018-02-25T00:22:32.957Z,71.80
2018-02-25T00:23:36.503Z,71.90
2018-02-25T00:24:39.663Z,71.90
2018-02-25T00:25:42.984Z,71.80
2018-02-25T00:26:45.484Z,71.80
2018-02-25T00:27:47.972Z,71.90
2018-02-25T00:28:50.473Z,72.00
2018-02-25T00:29:52.984Z,72.00
2018-02-25T00:30:55.489Z,72.00
2018-02-25T00:31:57.982Z,72.10
2018-02-25T00:33:01.955Z,72.50
2018-02-25T00:34:04.496Z,72.50
2018-02-25T00:35:07.747Z,72.40
2018-02-25T00:36:10.258Z,72.50
2018-02-25T00:37:13.322Z,72.20
2018-02-25T00:38:15.797Z,72.20
2018-02-25T00:39:18.294Z,72.30
2018-02-25T00:40:20.808Z,71.90
2018-02-25T00:41:24.050Z,72.00
2018-02-25T00:42:26.525Z,72.00
2018-02-25T00:43:29.255Z,72.10
2018-02-25T00:44:31.745Z,72.20
2018-02-25T00:45:34.269Z,72.40
2018-02-25T00:46:37.513Z,72.70
2018-02-25T00:47:40.975Z,72.60
2018-02-25T00:48:43.451Z,72.80
2018-02-25T00:49:45.978Z,73.60
2018-02-25T00:50:48.466Z,73.10
2018-02-25T00:51:51.740Z,73.10
2018-02-25T00:52:54.239Z,73.00
2018-02-25T00:53:58.468Z,73.10
2018-02-25T00:55:00.961Z,73.00
2018-02-25T00:56:03.472Z,73.10
2018-02-25T00:57:06.722Z,74.10
2018-02-25T00:58:09.231Z,73.20
2018-02-25T00:59:11.780Z,73.20
2018-02-25T01:00:14.248Z,73.20
2018-02-25T01:01:16.746Z,73.10
2018-02-25T01:02:19.228Z,73.10
2018-02-25T01:03:22.461Z,73.20
2018-02-25T01:04:25.817Z,73.20
2018-02-25T01:05:28.306Z,73.30
2018-02-25T01:06:30.788Z,73.40
2018-02-25T01:07:33.316Z,73.60
2018-02-25T01:08:35.809Z,73.70
2018-02-25T01:09:38.272Z,73.80
2018-02-25T01:10:41.054Z,74.00
2018-02-25T01:11:43.569Z,74.10
2018-02-25T01:12:46.047Z,74.10
2018-02-25T01:13:48.797Z,74.20
2018-02-25T01:14:51.267Z,74.00
2018-02-25T01:15:53.747Z,74.00
2018-02-25T01:16:56.276Z,74.10
2018-02-25T01:17:58.799Z,74.20
2018-02-25T01:19:01.667Z,74.90
2018-02-25T01:20:05.316Z,74.20
2018-02-25T01:21:09.013Z,74.20
2018-02-25T01:22:12.280Z,74.10
2018-02-25T01:23:14.786Z,74.00
2018-02-25T01:24:17.565Z,74.00
2018-02-25T01:25:20.053Z,74.80
2018-02-25T01:26:22.521Z,74.10
2018-02-25T01:27:25.017Z,74.00
2018-02-25T01:28:27.504Z,74.10
2018-02-25T01:29:29.982Z,74.20
2018-02-25T01:30:32.474Z,74.20
2018-02-25T01:31:35.713Z,73.80
2018-02-25T01:32:38.805Z,73.90
2018-02-25T01:33:41.296Z,74.40
2018-02-25T01:34:43.768Z,73.50
2018-02-25T01:35:47.668Z,73.70
2018-02-25T01:36:50.145Z,73.70
2018-02-25T01:37:53.419Z,73.60
2018-02-25T01:38:55.921Z,73.50
2018-02-25T01:39:59.173Z,73.60
2018-02-25T01:41:01.723Z,73.60
2018-02-25T01:42:04.212Z,73.60
2018-02-25T01:43:06.710Z,73.70
2018-02-25T01:44:09.185Z,73.80
2018-02-25T01:45:12.437Z,74.00
2018-02-25T01:46:14.981Z,73.90
2018-02-25T01:47:17.469Z,74.20
2018-02-25T01:48:19.963Z,74.10
2018-02-25T01:49:22.445Z,74.20
2018-02-25T01:50:24.948Z,74.20
2018-02-25T01:51:27.445Z,75.40
2018-02-25T01:52:29.955Z,74.70
2018-02-25T01:53:32.459Z,74.60
2018-02-25T01:54:34.957Z,74.60
2018-02-25T01:55:38.213Z,74.80
2018-02-25T01:56:42.798Z,74.70
2018-02-25T01:57:45.893Z,74.60
2018-02-25T01:58:49.633Z,74.50
2018-02-25T01:59:52.118Z,74.50
2018-02-25T02:00:54.600Z,74.60
2018-02-25T02:01:57.977Z,74.50
2018-02-25T02:03:00.446Z,74.60
2018-02-25T02:04:02.972Z,74.60
2018-02-25T02:05:07.134Z,74.80
2018-02-25T02:06:09.618Z,74.70
2018-02-25T02:07:14.119Z,74.90
2018-02-25T02:08:16.593Z,74.90
2018-02-25T02:09:19.097Z,74.80
2018-02-25T02:10:22.777Z,74.60
2018-02-25T02:11:25.263Z,74.50
2018-02-25T02:12:27.757Z,74.40
2018-02-25T02:13:31.755Z,74.50
2018-02-25T02:14:35.273Z,74.40
2018-02-25T02:15:37.778Z,74.40
2018-02-25T02:16:40.261Z,74.50
2018-02-25T02:17:42.746Z,74.40
2018-02-25T02:18:45.256Z,74.50
2018-02-25T02:19:47.740Z,74.50
2018-02-25T02:20:50.230Z,74.40
2018-02-25T02:21:52.718Z,75.20
2018-02-25T02:22:55.780Z,74.40
2018-02-25T02:23:58.372Z,74.30
2018-02-25T02:25:00.871Z,74.20
2018-02-25T02:26:04.447Z,74.30
2018-02-25T02:27:06.951Z,74.30
2018-02-25T02:41:04.476Z,74.40
2018-02-25T02:42:06.972Z,74.60
2018-02-25T02:43:10.200Z,74.40
2018-02-25T02:44:13.437Z,74.10
2018-02-25T02:45:16.775Z,74.10
2018-02-25T02:46:19.255Z,74.10
2018-02-25T02:47:21.777Z,74.20
2018-02-25T02:48:24.280Z,74.30
2018-02-25T02:49:27.544Z,74.60
2018-02-25T02:50:30.593Z,74.50
2018-02-25T02:51:33.089Z,74.60
2018-02-25T02:52:35.567Z,74.50
2018-02-25T02:53:38.050Z,74.30
2018-02-25T02:54:40.645Z,74.40
2018-02-25T02:55:43.139Z,75.00
2018-02-25T02:56:45.624Z,74.10
2018-02-25T02:57:48.455Z,74.10
2018-02-25T02:58:50.940Z,74.30
2018-02-25T02:59:54.585Z,74.60
2018-02-25T03:00:57.109Z,74.60
2018-02-25T03:02:01.290Z,74.70
2018-02-25T03:03:03.771Z,74.70
2018-02-25T03:04:06.270Z,74.70
2018-02-25T03:05:08.760Z,75.70
2018-02-25T03:06:11.282Z,74.80
2018-02-25T03:07:14.463Z,74.90
2018-02-25T03:08:16.963Z,75.00
2018-02-25T03:09:19.444Z,74.80
2018-02-25T03:10:21.941Z,74.90
2018-02-25T03:11:24.448Z,75.10
2018-02-25T03:12:26.925Z,75.10
2018-02-25T03:13:30.690Z,75.30
2018-02-25T03:14:33.187Z,75.40
2018-02-25T03:15:35.660Z,75.50
2018-02-25T03:16:39.002Z,75.60
2018-02-25T03:17:41.473Z,75.50
2018-02-25T03:18:43.975Z,75.40
2018-02-25T03:19:46.473Z,75.40
2018-02-25T03:20:49.737Z,75.60
2018-02-25T03:21:52.300Z,75.60
2018-02-25T03:22:54.796Z,75.70
2018-02-25T03:23:57.294Z,75.90
2018-02-25T03:25:00.060Z,76.00
2018-02-25T03:26:04.115Z,75.70
2018-02-25T03:27:06.861Z,75.70
2018-02-25T03:28:10.155Z,75.70
2018-02-25T03:29:13.945Z,75.90
2018-02-25T03:30:16.409Z,76.10
2018-02-25T03:31:18.897Z,76.10
2018-02-25T03:32:22.149Z,76.00
2018-02-25T03:33:25.408Z,76.30
2018-02-25T03:34:27.902Z,76.20
2018-02-25T03:35:30.386Z,76.30
2018-02-25T03:36:32.856Z,76.40
2018-02-25T03:37:36.121Z,77.30
2018-02-25T03:38:38.619Z,76.60
2018-02-25T03:39:41.895Z,76.60
2018-02-25T03:40:44.367Z,76.60
2018-02-25T03:41:48.198Z,76.90
2018-02-25T03:42:50.690Z,76.90
2018-02-25T03:43:53.624Z,77.00
2018-02-25T03:44:56.893Z,77.30
2018-02-25T03:45:59.378Z,77.40
2018-02-25T03:47:02.082Z,77.50
2018-02-25T03:48:04.581Z,77.60
2018-02-25T03:49:07.064Z,77.80
2018-02-25T03:50:09.560Z,78.00
2018-02-25T03:51:12.062Z,78.20
2018-02-25T03:52:15.540Z,78.50
2018-02-25T03:53:18.062Z,78.50
2018-02-25T03:54:20.566Z,78.70
2018-02-25T03:55:23.118Z,78.80
2018-02-25T03:56:25.618Z,78.80
2018-02-25T03:57:28.704Z,78.90
2018-02-25T03:58:31.210Z,79.20
2018-02-25T03:59:35.048Z,79.50
2018-02-25T04:00:37.551Z,79.40
2018-02-25T04:01:40.032Z,79.70
2018-02-25T04:02:42.522Z,80.00
2018-02-25T04:03:45.796Z,80.20
2018-02-25T04:04:48.308Z,80.10
2018-02-25T04:05:51.144Z,80.70
2018-02-25T04:06:53.658Z,80.40
2018-02-25T04:07:56.160Z,80.50
2018-02-25T04:08:59.450Z,80.70
2018-02-25T04:10:01.953Z,80.80
2018-02-25T04:11:05.218Z,81.30
2018-02-25T04:12:07.708Z,81.10
2018-02-25T04:13:10.979Z,81.70
2018-02-25T04:14:15.037Z,81.70
2018-02-25T04:15:17.540Z,81.60
2018-02-25T04:16:20.046Z,81.80
2018-02-25T04:17:23.302Z,82.00
2018-02-25T04:18:25.809Z,82.00
2018-02-25T04:19:29.076Z,82.40
2018-02-25T04:20:31.572Z,82.30
2018-02-25T04:21:34.862Z,82.80
2018-02-25T04:22:37.368Z,82.70
2018-02-25T04:23:39.875Z,82.90
2018-02-25T04:24:42.370Z,83.10
2018-02-25T04:25:45.630Z,83.80
2018-02-25T04:26:48.134Z,83.70
2018-02-25T04:27:50.672Z,84.00
2018-02-25T04:28:53.173Z,84.30
2018-02-25T04:29:56.453Z,84.60
2018-02-25T04:30:59.825Z,84.70
2018-02-25T04:32:02.324Z,84.70
2018-02-25T04:33:04.818Z,85.00
2018-02-25T04:34:07.326Z,85.20
2018-02-25T04:35:09.934Z,85.20
2018-02-25T04:36:13.219Z,85.60
2018-02-25T04:37:16.482Z,85.60
2018-02-25T04:38:18.976Z,85.50
2018-02-25T04:39:22.249Z,86.20
2018-02-25T04:40:24.768Z,86.10
2018-02-25T04:41:27.269Z,86.40
2018-02-25T04:42:29.767Z,86.70
2018-02-25T04:43:33.028Z,87.50
2018-02-25T04:44:36.070Z,87.40
2018-02-25T04:45:38.568Z,87.80
2018-02-25T04:46:41.071Z,88.20
2018-02-25T04:47:44.340Z,88.80
2018-02-25T04:48:46.833Z,88.80
2018-02-25T04:49:50.093Z,89.60
2018-02-25T04:50:52.595Z,89.50
2018-02-25T04:51:55.863Z,90.10
2018-02-25T04:52:58.356Z,90.10
2018-02-25T04:54:01.612Z,90.40
2018-02-25T04:55:04.115Z,90.40
2018-02-25T04:56:08.432Z,90.70
2018-02-25T04:57:11.708Z,90.90
2018-02-25T04:58:14.961Z,91.00
2018-02-25T04:59:17.450Z,91.00
2018-02-25T05:00:19.950Z,91.10
2018-02-25T05:01:22.459Z,91.30
2018-02-25T05:02:25.822Z,91.40
2018-02-25T05:03:28.312Z,91.50
2018-02-25T05:04:30.805Z,91.70
2018-02-25T05:05:34.269Z,91.80
2018-02-25T05:06:36.784Z,92.00
2018-02-25T05:07:39.310Z,92.20
2018-02-25T05:08:42.572Z,92.30
2018-02-25T05:09:45.070Z,92.50
2018-02-25T05:10:47.583Z,92.50
2018-02-25T05:11:50.083Z,92.70
2018-02-25T05:12:53.370Z,93.10
2018-02-25T05:13:55.862Z,93.10
2018-02-25T05:14:59.106Z,93.30
2018-02-25T05:16:01.616Z,93.30
2018-02-25T05:18:13.895Z,93.50
2018-02-25T05:19:16.392Z,93.70
2018-02-25T05:20:18.911Z,93.90
2018-02-25T05:21:21.424Z,94.40
2018-02-25T05:22:23.932Z,94.20
2018-02-25T05:23:26.438Z,94.30
2018-02-25T05:24:30.180Z,94.50
2018-02-25T05:25:33.444Z,94.80
2018-02-25T05:26:35.952Z,94.80
2018-02-25T05:27:39.229Z,94.90
2018-02-25T05:28:42.488Z,95.00
2018-02-25T05:29:44.981Z,95.00
2018-02-25T05:30:48.260Z,95.10
2018-02-25T05:31:50.757Z,95.10
2018-02-25T05:32:53.298Z,95.20
2018-02-25T05:33:55.807Z,95.30
2018-02-25T05:34:59.148Z,95.50
2018-02-25T05:36:01.632Z,95.70
2018-02-25T05:37:04.134Z,95.90
2018-02-25T05:38:06.633Z,96.30
2018-02-25T05:39:09.125Z,96.00
2018-02-25T05:40:11.644Z,96.20
2018-02-25T05:41:14.167Z,96.30
2018-02-25T05:42:16.671Z,96.40
2018-02-25T05:43:19.942Z,96.50
2018-02-25T05:44:23.202Z,96.90
2018-02-25T05:45:25.713Z,96.60
2018-02-25T05:46:29.914Z,96.80
2018-02-25T05:47:33.190Z,96.70
2018-02-25T05:48:35.682Z,96.90
2018-02-25T05:49:38.949Z,97.20
2018-02-25T05:50:41.434Z,97.10
2018-02-25T05:51:44.695Z,97.30
2018-02-25T05:52:47.193Z,97.30
2018-02-25T05:53:50.468Z,97.50
2018-02-25T05:54:52.997Z,97.50
2018-02-25T05:55:55.482Z,97.90
2018-02-25T05:56:57.989Z,97.70
2018-02-25T05:58:01.261Z,97.50
2018-02-25T05:59:03.786Z,97.80
2018-02-25T06:00:06.293Z,97.90
2018-02-25T06:01:08.790Z,97.90
2018-02-25T06:02:12.083Z,98.10
2018-02-25T06:03:15.347Z,98.10
2018-02-25T06:04:18.767Z,98.10
2018-02-25T06:05:22.050Z,98.10
2018-02-25T06:06:25.338Z,98.10
2018-02-25T06:07:27.820Z,98.10
2018-02-25T06:08:31.093Z,98.20
2018-02-25T06:09:34.367Z,98.20
2018-02-25T06:10:36.871Z,98.20
2018-02-25T06:11:39.373Z,98.30
2018-02-25T06:12:41.870Z,98.30
2018-02-25T06:13:44.376Z,98.40
2018-02-25T06:14:47.641Z,98.40
2018-02-25T06:15:50.127Z,98.40
2018-02-25T06:16:53.374Z,98.50
2018-02-25T06:17:55.912Z,98.50
2018-02-25T06:18:58.425Z,98.50
2018-02-25T06:20:00.960Z,98.60
2018-02-25T06:21:03.461Z,98.60
2018-02-25T06:22:05.948Z,98.50
2018-02-25T06:23:08.497Z,98.50
2018-02-25T06:24:10.995Z,98.50
2018-02-25T06:25:14.280Z,98.50
2018-02-25T06:26:16.796Z,98.50
2018-02-25T06:27:19.325Z,98.90
2018-02-25T06:28:22.383Z,98.50
2018-02-25T06:29:24.896Z,98.90
2018-02-25T06:30:29.069Z,98.70
2018-02-25T06:31:31.581Z,98.70
2018-02-25T06:32:34.087Z,99.00
2018-02-25T06:33:36.578Z,98.70
2018-02-25T06:34:39.204Z,98.70
2018-02-25T06:35:41.709Z,98.70
2018-02-25T06:36:44.214Z,98.80
2018-02-25T06:37:47.477Z,98.70
2018-02-25T06:38:49.974Z,98.70
2018-02-25T06:39:53.751Z,98.70
2018-02-25T06:40:56.256Z,98.60
2018-02-25T06:41:59.751Z,98.70
2018-02-25T06:43:03.030Z,99.00
2018-02-25T06:44:06.288Z,98.70
2018-02-25T06:45:08.772Z,98.60
2018-02-25T06:46:12.302Z,98.90
2018-02-25T06:47:14.803Z,98.90
2018-02-25T06:48:18.119Z,98.60
2018-02-25T06:49:20.622Z,98.60
2018-02-25T06:50:23.211Z,98.60
2018-02-25T06:51:25.746Z,98.60
2018-02-25T06:52:28.252Z,98.50
2018-02-25T06:53:30.743Z,98.40
2018-02-25T06:54:34.166Z,98.40
2018-02-25T06:55:36.669Z,98.40
2018-02-25T06:56:39.164Z,98.40
2018-02-25T06:57:41.659Z,98.40
2018-02-25T06:58:44.765Z,98.40
2018-02-25T06:59:47.258Z,98.70
2018-02-25T07:00:49.760Z,98.40
2018-02-25T07:01:52.243Z,98.40
2018-02-25T07:02:54.749Z,98.30
2018-02-25T07:03:57.258Z,98.20
2018-02-25T07:04:59.766Z,98.20
2018-02-25T07:06:02.283Z,98.10
2018-02-25T07:07:04.804Z,98.00
2018-02-25T07:08:07.412Z,97.90
2018-02-25T07:09:10.696Z,97.70
2018-02-25T07:10:13.953Z,97.70
2018-02-25T07:11:16.448Z,97.60
2018-02-25T07:12:19.758Z,97.60
2018-02-25T07:13:23.046Z,97.70
2018-02-25T07:14:26.323Z,97.60
2018-02-25T07:15:30.666Z,97.40
2018-02-25T07:16:33.690Z,97.30
2018-02-25T07:17:36.184Z,97.30
2018-02-25T07:18:39.467Z,97.30
2018-02-25T07:19:41.954Z,96.90
2018-02-25T07:20:45.214Z,96.80
2018-02-25T07:21:47.702Z,96.80
2018-02-25T07:22:50.957Z,96.20
2018-02-25T07:23:53.488Z,96.10
2018-02-25T07:24:55.983Z,96.10
2018-02-25T07:25:58.517Z,96.00
2018-02-25T07:27:01.081Z,96.00
2018-02-25T07:28:04.336Z,95.90
2018-02-25T07:29:06.841Z,95.90
2018-02-25T07:30:10.121Z,95.40
2018-02-25T07:31:13.410Z,95.20
2018-02-25T07:32:16.695Z,95.10
2018-02-25T07:33:19.969Z,94.90
2018-02-25T07:34:22.513Z,94.90
2018-02-25T07:35:25.706Z,94.90
2018-02-25T07:36:29.117Z,94.70
2018-02-25T07:37:31.620Z,94.50
2018-02-25T07:38:34.127Z,94.10
2018-02-25T07:39:37.727Z,93.80
2018-02-25T07:40:40.229Z,93.30
2018-02-25T07:41:43.413Z,92.90
2018-02-25T07:42:45.925Z,91.90
2018-02-25T07:43:48.434Z,91.30
2018-02-25T07:44:50.949Z,91.00
2018-02-25T07:45:53.455Z,90.60
2018-02-25T07:46:55.960Z,90.40
2018-02-25T07:47:59.047Z,90.40
2018-02-25T07:49:02.365Z,89.70
2018-02-25T07:50:05.665Z,88.20
2018-02-25T07:51:08.917Z,86.90
2018-02-25T07:52:13.251Z,86.90
2018-02-25T07:53:16.529Z,86.20
2018-02-25T07:54:19.038Z,86.10
2018-02-25T07:55:21.574Z,85.80
2018-02-25T07:56:24.070Z,85.70
2018-02-25T07:57:26.592Z,84.60
2018-02-25T07:58:29.114Z,84.30
2018-02-25T07:59:32.288Z,84.30
2018-02-25T08:00:35.610Z,82.70
2018-02-25T08:01:38.136Z,82.70
2018-02-25T08:02:41.424Z,83.30
2018-02-25T08:03:43.923Z,83.20
2018-02-25T08:04:46.442Z,83.10
2018-02-25T08:05:48.942Z,82.60
2018-02-25T08:06:52.263Z,82.20
2018-02-25T08:07:55.270Z,82.20
2018-02-25T08:08:57.788Z,81.60
2018-02-25T08:10:01.075Z,81.40
2018-02-25T08:11:04.373Z,80.70
2018-02-25T08:12:06.863Z,80.70
2018-02-25T08:13:09.366Z,79.70
2018-02-25T08:14:11.876Z,79.50
2018-02-25T08:15:15.171Z,79.40
2018-02-25T08:16:18.467Z,79.00
2018-02-25T08:17:20.959Z,78.90
2018-02-25T08:18:23.466Z,77.70
2018-02-25T08:19:25.996Z,77.00
2018-02-25T08:20:28.524Z,76.80
2018-02-25T08:21:31.804Z,77.00
2018-02-25T08:22:34.306Z,77.00
2018-02-25T08:23:36.791Z,76.90
2018-02-25T08:24:39.314Z,76.90
2018-02-25T08:25:41.854Z,77.30
2018-02-25T08:26:44.371Z,77.40
2018-02-25T08:27:47.625Z,77.40
2018-02-25T08:28:50.120Z,77.40
2018-02-25T08:29:53.395Z,78.00
2018-02-25T08:30:55.913Z,77.30
2018-02-25T08:31:58.425Z,76.80
2018-02-25T08:33:00.923Z,76.70
2018-02-25T08:34:04.196Z,76.80
2018-02-25T08:35:06.691Z,76.80
2018-02-25T08:36:09.979Z,76.30
2018-02-25T08:37:13.267Z,75.90
2018-02-25T08:38:16.523Z,75.30
2018-02-25T08:39:19.023Z,75.30
2018-02-25T08:40:22.292Z,75.40
2018-02-25T08:41:26.300Z,76.20
2018-02-25T08:42:30.332Z,76.40
2018-02-25T08:43:33.914Z,76.50
2018-02-25T08:44:37.213Z,75.70
2018-02-25T08:45:40.497Z,75.30
2018-02-25T08:46:43.775Z,75.20
2018-02-25T08:47:47.066Z,75.40
2018-02-25T08:48:50.352Z,75.10
2018-02-25T08:49:53.643Z,75.40
2018-02-25T08:50:56.906Z,76.30
2018-02-25T08:51:59.433Z,76.30
2018-02-25T08:53:01.930Z,76.60
2018-02-25T08:54:04.470Z,76.50
2018-02-25T08:55:07.007Z,76.00
2018-02-25T08:56:10.359Z,76.90
2018-02-25T08:57:12.944Z,76.20
2018-02-25T08:58:15.456Z,76.50
2018-02-25T08:59:18.715Z,75.60
2018-02-25T09:00:22.092Z,75.50
2018-02-25T09:01:24.595Z,75.30
2018-02-25T09:02:27.928Z,74.00
2018-02-25T09:03:32.016Z,74.20
2018-02-25T09:04:34.526Z,74.30
2018-02-25T09:05:37.029Z,75.10
2018-02-25T09:06:40.313Z,75.80
2018-02-25T09:07:42.847Z,75.70
2018-02-25T09:08:45.335Z,75.90
2018-02-25T09:09:47.839Z,75.50
2018-02-25T09:10:51.100Z,75.10
2018-02-25T09:11:53.593Z,74.20
2018-02-25T09:12:56.887Z,73.50
2018-02-25T09:14:00.183Z,72.70
2018-02-25T09:15:03.431Z,72.00
2018-02-25T09:16:05.937Z,72.00
2018-02-25T09:17:09.203Z,71.10
2018-02-25T09:18:11.800Z,71.10
2018-02-25T09:19:14.264Z,71.80
2018-02-25T09:20:17.537Z,71.40
2018-02-25T09:21:20.819Z,71.80
2018-02-25T09:22:23.324Z,71.70
2018-02-25T09:23:25.843Z,71.40
2018-02-25T09:24:28.350Z,70.90
2018-02-25T09:25:31.605Z,69.70
2018-02-25T09:26:34.132Z,69.60
2018-02-25T09:27:36.624Z,69.20
2018-02-25T09:28:39.133Z,68.40
2018-02-25T09:29:41.620Z,67.50
2018-02-25T09:30:44.894Z,66.90
2018-02-25T09:31:48.182Z,67.50
2018-02-25T09:32:50.683Z,67.20
2018-02-25T09:33:53.192Z,66.70
2018-02-25T09:34:55.710Z,66.30
2018-02-25T09:35:58.269Z,64.90
2018-02-25T09:37:00.738Z,65.70
2018-02-25T09:38:04.001Z,66.30
2018-02-25T09:39:06.507Z,66.30
2018-02-25T09:40:09.781Z,66.00
2018-02-25T09:41:13.118Z,66.10
2018-02-25T09:42:15.621Z,65.00
2018-02-25T09:43:18.135Z,63.90
2018-02-25T09:44:20.648Z,63.90
2018-02-25T09:45:23.180Z,62.90
2018-02-25T09:46:25.681Z,62.20
2018-02-25T09:47:28.176Z,62.10
2018-02-25T09:48:30.667Z,61.50
2018-02-25T09:49:33.944Z,61.90
2018-02-25T09:50:36.452Z,61.80
2018-02-25T09:51:38.963Z,61.90
2018-02-25T09:52:41.471Z,61.70
2018-02-25T09:53:44.728Z,60.00
2018-02-25T09:54:47.279Z,59.90
2018-02-25T09:55:49.775Z,60.00
2018-02-25T09:56:52.275Z,59.90
2018-02-25T09:57:55.553Z,60.00
2018-02-25T09:58:58.859Z,60.40
2018-02-25T10:00:01.810Z,60.30
2018-02-25T10:01:04.346Z,60.60
2018-02-25T10:02:06.841Z,60.90
2018-02-25T10:03:09.370Z,61.50
2018-02-25T10:04:12.041Z,61.70
2018-02-25T10:05:14.570Z,61.90
2018-02-25T10:06:17.092Z,60.80
2018-02-25T10:07:19.643Z,60.50
2018-02-25T10:08:22.158Z,60.20
2018-02-25T10:09:24.685Z,59.40
2018-02-25T10:10:27.207Z,59.10
2018-02-25T10:11:29.729Z,58.70
2018-02-25T10:12:32.242Z,59.00
2018-02-25T10:13:34.744Z,58.30
2018-02-25T10:14:38.038Z,58.50
2018-02-25T10:15:41.332Z,58.40
2018-02-25T10:16:43.836Z,58.30
2018-02-25T10:17:46.353Z,58.20
2018-02-25T10:18:49.633Z,58.50
2018-02-25T10:19:52.931Z,58.00
2018-02-25T10:20:55.439Z,58.70
2018-02-25T10:21:58.182Z,59.00
2018-02-25T10:23:01.529Z,58.40
2018-02-25T10:24:04.032Z,58.40
2018-02-25T10:25:06.544Z,57.80
2018-02-25T10:26:09.071Z,57.80
2018-02-25T10:27:11.711Z,58.20
2018-02-25T10:28:14.294Z,58.30
2018-02-25T10:29:16.804Z,58.60
2018-02-25T10:30:20.076Z,58.50
2018-02-25T10:31:23.371Z,58.30
2018-02-25T10:32:25.919Z,58.30
2018-02-25T10:33:28.445Z,59.00
2018-02-25T10:34:30.949Z,58.70
2018-02-25T10:35:33.464Z,59.60
2018-02-25T10:36:36.763Z,59.80
2018-02-25T10:37:40.029Z,59.10
2018-02-25T10:38:43.291Z,59.00
2018-02-25T10:39:45.798Z,59.00
2018-02-25T10:40:49.063Z,58.60
2018-02-25T10:41:51.583Z,57.80
2018-02-25T10:42:54.104Z,57.00
2018-02-25T10:43:56.616Z,56.60
2018-02-25T10:44:59.117Z,56.90
2018-02-25T10:46:01.650Z,56.90
2018-02-25T10:47:04.967Z,56.90
2018-02-25T10:48:07.514Z,56.90
2018-02-25T10:49:10.906Z,56.90
2018-02-25T10:50:13.430Z,56.60
2018-02-25T10:51:16.031Z,56.60
2018-02-25T10:52:19.324Z,56.90
2018-02-25T10:53:22.617Z,56.20
2018-02-25T10:54:25.930Z,55.50
2018-02-25T10:55:28.486Z,55.40
2018-02-25T10:56:31.002Z,55.40
2018-02-25T10:57:33.532Z,55.70
2018-02-25T10:58:36.046Z,55.60
2018-02-25T10:59:38.619Z,55.10
2018-02-25T11:00:41.131Z,54.70
2018-02-25T11:01:44.415Z,53.90
2018-02-25T11:02:47.731Z,53.80
2018-02-25T11:03:50.235Z,53.70
2018-02-25T11:04:52.736Z,53.30
2018-02-25T11:05:56.213Z,53.00
2018-02-25T11:06:58.835Z,53.00
2018-02-25T11:08:01.398Z,53.00
2018-02-25T11:09:04.709Z,53.40
2018-02-25T11:10:07.301Z,53.20
2018-02-25T11:11:10.045Z,53.20
2018-02-25T11:12:12.674Z,53.10
2018-02-25T11:13:15.990Z,52.20
2018-02-25T11:14:18.572Z,52.20
2018-02-25T11:15:21.113Z,52.20
2018-02-25T11:16:23.615Z,52.30
2018-02-25T11:17:26.117Z,53.30
2018-02-25T11:18:28.629Z,52.50
2018-02-25T11:19:31.894Z,51.80
2018-02-25T11:20:35.916Z,52.10
2018-02-25T11:21:38.516Z,52.10
2018-02-25T11:22:41.010Z,52.00
2018-02-25T11:23:43.528Z,51.90
2018-02-25T11:24:46.050Z,51.60
2018-02-25T11:25:48.570Z,51.30
2018-02-25T11:26:51.821Z,51.80
2018-02-25T11:27:54.334Z,51.70
2018-02-25T11:28:57.632Z,52.30
2018-02-25T11:30:00.880Z,52.50
2018-02-25T11:31:03.375Z,52.40
2018-02-25T11:32:05.936Z,52.30
2018-02-25T11:33:08.452Z,52.50
2018-02-25T11:34:11.078Z,52.50
2018-02-25T11:35:13.599Z,52.60
2018-02-25T11:36:16.108Z,52.70
2018-02-25T11:37:18.670Z,52.80
2018-02-25T11:38:21.186Z,52.70
2018-02-25T11:39:24.488Z,51.80
2018-02-25T11:40:27.006Z,51.80
2018-02-25T11:41:29.543Z,51.30
2018-02-25T11:42:32.044Z,51.00
2018-02-25T11:43:34.557Z,51.00
2018-02-25T11:44:37.832Z,50.80
2018-02-25T11:45:40.339Z,50.80
2018-02-25T11:46:42.843Z,50.90
2018-02-25T11:47:45.420Z,50.70
2018-02-25T11:48:47.974Z,50.40
2018-02-25T11:49:50.511Z,50.60
2018-02-25T11:50:53.803Z,50.10
2018-02-25T11:51:57.072Z,49.90
2018-02-25T11:52:59.588Z,49.80
2018-02-25T11:54:02.101Z,49.00
2018-02-25T11:55:04.636Z,48.60
2018-02-25T11:56:07.148Z,48.80
2018-02-25T11:57:09.682Z,48.60
2018-02-25T11:58:12.382Z,48.90
2018-02-25T11:59:14.911Z,48.80
2018-02-25T12:00:17.410Z,48.90
2018-02-25T12:01:19.951Z,48.80
2018-02-25T12:02:22.449Z,48.90
2018-02-25T12:03:24.954Z,48.90
2018-02-25T12:04:28.241Z,48.30
2018-02-25T12:05:30.771Z,48.80
2018-02-25T12:06:33.304Z,48.60
2018-02-25T12:07:35.800Z,48.90
2018-02-25T12:08:38.297Z,48.80
2018-02-25T12:09:40.822Z,49.20
2018-02-25T12:10:43.401Z,49.20
2018-02-25T12:11:45.895Z,49.50
2018-02-25T12:12:48.392Z,48.90
2018-02-25T12:13:50.881Z,48.70
2018-02-25T12:14:59.272Z,48.20
2018-02-25T12:15:55.943Z,48.50
2018-02-25T12:16:59.213Z,48.60
2018-02-25T12:18:02.524Z,48.60
2018-02-25T12:19:05.839Z,48.90
2018-02-25T12:20:08.349Z,49.50
2018-02-25T12:21:10.909Z,49.20
2018-02-25T12:22:13.420Z,49.80
2018-02-25T12:23:15.921Z,49.50
2018-02-25T12:24:18.431Z,49.10
2018-02-25T12:25:22.462Z,49.10
2018-02-25T12:26:24.988Z,49.00
2018-02-25T12:27:27.545Z,49.10
2018-02-25T12:28:30.049Z,49.20
2018-02-25T12:29:32.576Z,49.60
2018-02-25T12:30:35.086Z,50.30
2018-02-25T12:31:37.595Z,50.80
2018-02-25T12:32:40.115Z,50.90
2018-02-25T12:33:42.608Z,50.90
2018-02-25T12:34:45.899Z,50.70
2018-02-25T12:35:49.175Z,50.60
2018-02-25T12:36:51.714Z,50.60
2018-02-25T12:37:54.262Z,50.40
2018-02-25T12:38:56.816Z,49.90
2018-02-25T12:40:00.087Z,49.60
2018-02-25T12:41:03.392Z,50.60
2018-02-25T12:42:05.965Z,49.90
2018-02-25T12:43:08.499Z,50.40
2018-02-25T12:44:11.130Z,50.60
2018-02-25T12:45:13.739Z,50.70
2018-02-25T12:46:16.244Z,50.40
2018-02-25T12:47:19.532Z,51.00
2018-02-25T12:48:22.801Z,51.00
2018-02-25T12:49:25.305Z,50.90
2018-02-25T12:50:27.850Z,51.00
2018-02-25T12:51:31.888Z,50.70
2018-02-25T12:52:34.400Z,50.70
2018-02-25T12:53:36.908Z,50.20
2018-02-25T12:54:40.202Z,50.60
2018-02-25T12:55:42.722Z,50.60
2018-02-25T12:56:45.261Z,50.60
2018-02-25T12:57:47.782Z,50.60
2018-02-25T12:58:50.314Z,50.20
2018-02-25T12:59:52.821Z,50.00
2018-02-25T13:00:55.370Z,49.40
2018-02-25T13:01:57.870Z,49.00
2018-02-25T13:03:00.403Z,49.00
2018-02-25T13:04:02.949Z,49.20
2018-02-25T13:05:05.527Z,49.30
2018-02-25T13:06:08.039Z,49.20
2018-02-25T13:07:11.264Z,49.20
2018-02-25T13:08:14.581Z,49.60
2018-02-25T13:09:17.083Z,49.50
2018-02-25T13:10:19.579Z,49.80
2018-02-25T13:11:22.863Z,49.90
2018-02-25T13:12:25.369Z,49.90
2018-02-25T13:13:27.893Z,49.90
2018-02-25T13:14:30.418Z,49.70
2018-02-25T13:15:32.981Z,49.80
2018-02-25T13:16:35.509Z,49.60
2018-02-25T13:17:38.000Z,49.10
2018-02-25T13:18:41.286Z,49.80
2018-02-25T13:19:44.569Z,49.20
2018-02-25T13:20:47.833Z,48.70
2018-02-25T13:21:50.341Z,49.20
2018-02-25T13:22:53.603Z,48.70
2018-02-25T13:23:56.122Z,48.70
2018-02-25T13:24:58.623Z,48.40
2018-02-25T13:26:01.140Z,48.40
2018-02-25T13:27:04.422Z,48.40
2018-02-25T13:28:07.693Z,48.80
2018-02-25T13:29:10.311Z,48.70
2018-02-25T13:30:13.066Z,48.90
2018-02-25T13:31:16.339Z,48.60
2018-02-25T13:32:18.879Z,48.60
2018-02-25T13:33:21.415Z,48.60
2018-02-25T13:34:23.981Z,48.50
2018-02-25T13:35:27.243Z,48.80
2018-02-25T13:36:29.754Z,48.70
2018-02-25T13:37:32.316Z,49.60
2018-02-25T13:38:34.833Z,48.90
2018-02-25T13:39:37.348Z,48.60
2018-02-25T13:40:39.867Z,48.20
2018-02-25T13:41:42.371Z,47.50
2018-02-25T13:42:45.640Z,48.30